TimeCDT,TemperatureF,Dew PointF,Humidity,Sea Level PressureIn,VisibilityMPH,Wind Direction,Wind SpeedMPH,Gust SpeedMPH,PrecipitationIn,Events,Conditions,WindDirDegrees,DateUTC
12:54 AM,63.0,61.0,93,29.66,10.0,Calm,Calm,-,N/A,,Partly Cloudy,0,2013-06-28 05:54:00
1:54 AM,60.1,59.0,96,29.64,10.0,Calm,Calm,-,N/A,,Clear,0,2013-06-28 06:54:00
2:54 AM,59.0,57.9,96,29.65,8.0,Calm,Calm,-,N/A,,Clear,0,2013-06-28 07:54:00
3:21 AM,59.0,57.2,94,29.65,1.8,Calm,Calm,-,N/A,,Clear,0,2013-06-28 08:21:00
3:32 AM,59.0,57.2,94,29.65,4.0,Calm,Calm,-,N/A,,Clear,0,2013-06-28 08:32:00
3:54 AM,60.1,57.9,93,29.63,10.0,Calm,Calm,-,N/A,,Scattered Clouds,0,2013-06-28 08:54:00
4:54 AM,61.0,59.0,93,29.62,10.0,NW,4.6,-,N/A,,Mostly Cloudy,320,2013-06-28 09:54:00
5:54 AM,61.0,59.0,93,29.65,10.0,NE,4.6,-,N/A,,Mostly Cloudy,50,2013-06-28 10:54:00
6:54 AM,62.1,60.1,93,29.64,10.0,Calm,Calm,-,0.00,,Overcast,0,2013-06-28 11:54:00
7:32 AM,64.4,60.8,88,29.65,10.0,NNW,3.5,-,0.00,,Scattered Clouds,330,2013-06-28 12:32:00
7:43 AM,64.4,60.8,88,29.65,10.0,NW,3.5,-,0.00,,Mostly Cloudy,310,2013-06-28 12:43:00
7:54 AM,64.0,61.0,90,29.64,10.0,NNW,4.6,-,0.00,,Overcast,330,2013-06-28 12:54:00
8:54 AM,64.9,61.0,87,29.64,10.0,NW,3.5,-,N/A,,Overcast,310,2013-06-28 13:54:00
9:09 AM,66.2,60.8,83,29.64,10.0,WNW,4.6,-,N/A,,Overcast,300,2013-06-28 14:09:00
9:54 AM,66.9,61.0,81,29.63,10.0,NW,6.9,-,N/A,,Overcast,320,2013-06-28 14:54:00
10:54 AM,66.9,61.0,81,29.64,10.0,WNW,4.6,-,N/A,,Overcast,300,2013-06-28 15:54:00
11:54 AM,68.0,61.0,78,29.65,10.0,North,4.6,-,0.00,Rain,Light Rain,360,2013-06-28 16:54:00
12:09 PM,68.0,62.6,83,29.66,10.0,North,8.1,-,0.00,Rain,Light Rain,10,2013-06-28 17:09:00
12:25 PM,64.4,60.8,88,29.66,2.0,North,3.5,-,0.06,Rain,Rain,10,2013-06-28 17:25:00
12:35 PM,64.4,62.6,94,29.66,6.0,Calm,Calm,-,0.06,Rain,Light Rain,0,2013-06-28 17:35:00
12:44 PM,66.2,62.6,88,29.66,10.0,Calm,Calm,-,0.06,Rain,Light Rain,0,2013-06-28 17:44:00
12:54 PM,66.9,62.1,84,29.66,10.0,Calm,Calm,-,0.06,,Overcast,0,2013-06-28 17:54:00
1:54 PM,68.0,62.1,81,29.66,10.0,North,8.1,-,0.00,Rain,Light Rain,10,2013-06-28 18:54:00
2:54 PM,69.1,62.1,78,29.66,10.0,North,5.8,-,0.01,,Overcast,10,2013-06-28 19:54:00
3:54 PM,71.1,63.0,75,29.65,10.0,Variable,4.6,-,N/A,,Mostly Cloudy,0,2013-06-28 20:54:00
4:54 PM,70.0,62.1,76,29.66,10.0,NNW,15.0,-,N/A,,Overcast,340,2013-06-28 21:54:00
5:54 PM,69.1,60.1,73,29.67,10.0,North,6.9,-,0.00,,Mostly Cloudy,360,2013-06-28 22:54:00
6:46 PM,69.8,60.8,73,29.67,10.0,NNE,6.9,-,N/A,,Overcast,30,2013-06-28 23:46:00
6:54 PM,70.0,60.1,71,29.67,10.0,NNE,12.7,17.3,N/A,,Overcast,30,2013-06-28 23:54:00
7:54 PM,68.0,60.1,76,29.68,10.0,NNE,8.1,-,N/A,,Overcast,20,2013-06-29 00:54:00
8:42 PM,66.2,59.0,78,29.70,10.0,NNE,6.9,-,N/A,,Overcast,20,2013-06-29 01:42:00
8:54 PM,64.9,59.0,81,29.70,10.0,NNE,9.2,-,N/A,,Overcast,20,2013-06-29 01:54:00
9:07 PM,66.2,59.0,78,29.71,10.0,NNE,6.9,-,N/A,,Overcast,30,2013-06-29 02:07:00
9:28 PM,64.4,59.0,83,29.72,10.0,NNE,8.1,16.1,N/A,,Overcast,30,2013-06-29 02:28:00
9:54 PM,64.0,59.0,84,29.71,10.0,NNE,6.9,-,N/A,,Overcast,30,2013-06-29 02:54:00
10:40 PM,64.4,57.2,77,29.72,10.0,North,8.1,-,N/A,,Overcast,10,2013-06-29 03:40:00
10:47 PM,64.4,57.2,77,29.72,10.0,North,5.8,-,N/A,,Overcast,10,2013-06-29 03:47:00
10:54 PM,64.0,57.9,80,29.71,10.0,NNE,9.2,-,N/A,,Overcast,20,2013-06-29 03:54:00
11:45 PM,64.4,57.2,77,29.70,10.0,North,8.1,-,N/A,,Overcast,350,2013-06-29 04:45:00
11:54 PM,63.0,57.9,84,29.70,10.0,North,6.9,-,N/A,,Mostly Cloudy,360,2013-06-29 04:54:00